Time;durP1;ratioP1;P1;durP2;ratioP2;P2;SDS_P1;SDS_P2;PMS_P1;PMS_P2;Temp;Humidity;BMP_temperature;BMP_pressure;BME280_temperature;BME280_humidity;BME280_pressure;Samples;Min_cycle;Max_cycle;Signal;HPM_P1;HPM_P2
2021/05/28 00:01:00;;;;;;;14.07;6.57;;;8.60;99.90;;;;;;494070;241;28552;-74
2021/05/28 00:03:02;;;;;;;7.90;5.47;;;8.60;99.90;;;;;;494155;241;28517;-74
2021/05/28 00:05:03;;;;;;;7.97;6.13;;;8.60;99.90;;;;;;494062;241;28408;-74
2021/05/28 00:07:04;;;;;;;7.70;5.90;;;8.70;99.90;;;;;;494086;241;28296;-74
2021/05/28 00:09:05;;;;;;;6.00;5.50;;;8.70;99.90;;;;;;494042;241;28381;-74
2021/05/28 00:11:07;;;;;;;7.80;5.90;;;8.70;99.90;;;;;;494081;241;28040;-74
2021/05/28 00:13:08;;;;;;;9.17;6.13;;;8.80;99.90;;;;;;494066;241;27943;-74
2021/05/28 00:15:09;;;;;;;7.47;5.63;;;8.80;99.90;;;;;;494097;241;28122;-73
2021/05/28 00:17:10;;;;;;;7.30;5.27;;;8.80;99.90;;;;;;494062;241;27839;-74
2021/05/28 00:19:12;;;;;;;7.50;5.60;;;8.70;99.90;;;;;;494055;241;27984;-74
2021/05/28 00:21:13;;;;;;;7.23;5.70;;;8.70;99.90;;;;;;494049;241;28259;-74
2021/05/28 00:23:14;;;;;;;6.10;5.50;;;8.80;99.90;;;;;;494060;241;27949;-74
2021/05/28 00:25:15;;;;;;;9.13;5.80;;;8.70;99.90;;;;;;494062;241;27978;-74
2021/05/28 00:27:17;;;;;;;9.63;5.90;;;8.80;99.90;;;;;;494073;241;27929;-74
2021/05/28 00:29:18;;;;;;;8.10;6.30;;;8.70;99.90;;;;;;494080;241;27982;-74
2021/05/28 00:31:19;;;;;;;6.47;5.87;;;8.80;99.90;;;;;;494139;241;28326;-73
2021/05/28 00:33:20;;;;;;;7.40;5.30;;;8.80;99.90;;;;;;494137;241;28068;-74
2021/05/28 00:35:22;;;;;;;5.70;4.90;;;8.80;99.90;;;;;;494055;241;27971;-73
2021/05/28 00:37:23;;;;;;;5.13;4.67;;;8.90;99.90;;;;;;494100;241;28413;-74
2021/05/28 00:39:24;;;;;;;5.60;5.03;;;8.90;99.90;;;;;;494061;241;28518;-74
2021/05/28 00:41:25;;;;;;;5.47;4.77;;;8.90;99.90;;;;;;494139;237;28230;-75
2021/05/28 00:43:27;;;;;;;6.47;5.00;;;8.90;99.90;;;;;;494081;241;28446;-74
2021/05/28 00:45:28;;;;;;;5.80;4.97;;;8.90;99.90;;;;;;494044;241;28474;-74
2021/05/28 00:47:29;;;;;;;8.53;5.90;;;8.90;99.90;;;;;;494161;241;27785;-74
2021/05/28 00:49:30;;;;;;;6.07;5.47;;;8.80;99.90;;;;;;494071;237;27939;-74
2021/05/28 00:51:32;;;;;;;5.83;5.23;;;8.80;99.90;;;;;;494049;241;27994;-75
2021/05/28 00:53:33;;;;;;;5.60;5.10;;;8.80;99.90;;;;;;494069;241;27615;-73
2021/05/28 00:55:34;;;;;;;9.67;5.90;;;8.80;99.90;;;;;;494082;237;27929;-74
2021/05/28 00:57:35;;;;;;;5.30;4.80;;;8.70;99.90;;;;;;494077;241;27914;-74
2021/05/28 00:59:37;;;;;;;9.30;6.57;;;8.60;99.90;;;;;;494054;241;27817;-73
2021/05/28 01:01:38;;;;;;;6.20;5.60;;;8.50;99.90;;;;;;494135;241;28237;-74
2021/05/28 01:03:39;;;;;;;6.73;6.10;;;8.40;99.90;;;;;;494175;240;27610;-74
2021/05/28 01:05:40;;;;;;;6.87;5.53;;;8.50;99.90;;;;;;494149;241;27658;-74
2021/05/28 01:07:42;;;;;;;9.17;5.77;;;8.50;99.90;;;;;;494188;241;27689;-75
2021/05/28 01:09:43;;;;;;;6.63;5.50;;;8.60;99.90;;;;;;494146;241;27949;-74
2021/05/28 01:11:44;;;;;;;6.60;5.90;;;8.60;99.90;;;;;;494074;237;27850;-74
2021/05/28 01:13:45;;;;;;;6.73;6.13;;;8.70;99.90;;;;;;494080;241;27656;-74
2021/05/28 01:15:47;;;;;;;5.97;5.47;;;8.60;99.90;;;;;;494074;241;28452;-74
2021/05/28 01:17:48;;;;;;;5.53;4.90;;;8.70;99.90;;;;;;494054;241;28408;-74
2021/05/28 01:19:49;;;;;;;6.23;5.00;;;8.70;99.90;;;;;;494051;241;28268;-74
2021/05/28 01:21:50;;;;;;;5.57;4.20;;;8.70;99.90;;;;;;494069;241;28278;-74
2021/05/28 01:23:52;;;;;;;5.03;4.63;;;8.80;99.90;;;;;;494028;241;28536;-74
2021/05/28 01:25:53;;;;;;;5.57;5.07;;;8.80;99.90;;;;;;494127;241;27874;-74
2021/05/28 01:27:54;;;;;;;5.30;4.80;;;8.70;99.90;;;;;;494161;241;27871;-74
2021/05/28 01:29:55;;;;;;;5.53;5.03;;;8.70;99.90;;;;;;494091;241;28065;-76
2021/05/28 01:31:57;;;;;;;6.80;6.20;;;8.70;99.90;;;;;;494064;241;28073;-74
2021/05/28 01:33:58;;;;;;;4.93;4.40;;;8.70;99.90;;;;;;494132;241;28037;-74
2021/05/28 01:35:59;;;;;;;5.70;5.10;;;8.70;99.90;;;;;;494105;241;27965;-73
2021/05/28 01:38:01;;;;;;;4.90;4.50;;;8.70;99.90;;;;;;494084;241;28078;-74
2021/05/28 01:40:02;;;;;;;6.40;4.67;;;8.60;99.90;;;;;;493935;241;28131;-74
2021/05/28 01:42:03;;;;;;;5.00;4.50;;;8.60;99.90;;;;;;494081;241;27466;-74
2021/05/28 01:44:04;;;;;;;5.43;4.93;;;8.60;99.90;;;;;;494097;241;28227;-74
2021/05/28 01:46:05;;;;;;;5.00;4.60;;;8.60;99.90;;;;;;494090;241;28018;-74
2021/05/28 01:48:07;;;;;;;5.20;4.70;;;8.60;99.90;;;;;;494087;241;27843;-74
2021/05/28 01:50:08;;;;;;;4.70;4.30;;;8.60;99.90;;;;;;494073;241;27962;-74
2021/05/28 01:52:09;;;;;;;4.40;4.00;;;8.50;99.90;;;;;;494098;241;27951;-74
2021/05/28 01:54:10;;;;;;;5.73;4.50;;;8.50;99.90;;;;;;494167;241;28561;-74
2021/05/28 01:56:12;;;;;;;6.50;5.03;;;8.50;99.90;;;;;;494157;241;28521;-74
2021/05/28 01:58:13;;;;;;;5.70;4.97;;;8.50;99.90;;;;;;494079;241;28402;-73
2021/05/28 02:00:14;;;;;;;5.40;4.90;;;8.50;99.90;;;;;;494088;241;28558;-74
2021/05/28 02:02:15;;;;;;;6.33;4.70;;;8.50;99.90;;;;;;494063;241;28556;-74
2021/05/28 02:04:17;;;;;;;6.17;5.57;;;8.50;99.90;;;;;;494102;241;27989;-73
2021/05/28 02:06:18;;;;;;;8.53;5.20;;;8.50;99.90;;;;;;494040;239;28089;-74
2021/05/28 02:08:19;;;;;;;6.03;4.97;;;8.50;99.90;;;;;;494121;241;27954;-74
2021/05/28 02:10:20;;;;;;;6.53;5.20;;;8.50;99.90;;;;;;494076;240;27849;-74
2021/05/28 02:12:22;;;;;;;6.20;4.97;;;8.40;99.90;;;;;;494068;241;27922;-74
2021/05/28 02:14:24;;;;;;;4.87;4.47;;;8.50;99.90;;;;;;494121;241;28053;-74
2021/05/28 02:16:24;;;;;;;5.33;4.83;;;8.40;99.90;;;;;;494051;241;27969;-74
2021/05/28 02:18:25;;;;;;;5.93;5.23;;;8.50;99.90;;;;;;494033;241;28420;-75
2021/05/28 02:20:27;;;;;;;5.57;4.90;;;8.50;99.90;;;;;;494076;241;27854;-74
2021/05/28 02:22:28;;;;;;;8.47;4.60;;;8.50;99.90;;;;;;494213;241;28041;-74
2021/05/28 02:24:29;;;;;;;5.67;4.87;;;8.50;99.90;;;;;;494188;241;28049;-73
2021/05/28 02:26:30;;;;;;;6.77;6.00;;;8.50;99.90;;;;;;494180;241;27951;-74
2021/05/28 02:28:32;;;;;;;5.53;4.57;;;8.60;99.90;;;;;;494215;241;28019;-74
2021/05/28 02:30:33;;;;;;;6.53;5.27;;;8.60;99.90;;;;;;494080;241;28614;-73
2021/05/28 02:32:34;;;;;;;5.93;5.33;;;8.60;99.90;;;;;;494099;241;28435;-74
2021/05/28 02:34:35;;;;;;;6.83;5.03;;;8.60;99.90;;;;;;494190;241;28660;-74
2021/05/28 02:36:37;;;;;;;6.27;5.07;;;8.70;99.90;;;;;;494167;241;28469;-74
2021/05/28 02:38:38;;;;;;;9.20;5.27;;;8.70;99.90;;;;;;494105;241;28339;-74
2021/05/28 02:40:39;;;;;;;6.53;5.83;;;8.70;99.90;;;;;;494187;241;27961;-73
2021/05/28 02:42:40;;;;;;;5.17;4.67;;;8.70;99.90;;;;;;494139;237;27596;-74
2021/05/28 02:44:42;;;;;;;5.77;5.27;;;8.70;99.90;;;;;;494112;241;27814;-75
2021/05/28 02:46:43;;;;;;;5.70;5.17;;;8.60;99.90;;;;;;494103;241;27990;-74
2021/05/28 02:48:44;;;;;;;6.93;4.77;;;8.60;99.90;;;;;;494095;241;27984;-75
2021/05/28 02:50:45;;;;;;;5.17;4.30;;;8.50;99.90;;;;;;494064;241;27997;-74
2021/05/28 02:52:47;;;;;;;6.13;5.53;;;8.60;99.90;;;;;;494126;241;27958;-73
2021/05/28 02:54:48;;;;;;;8.60;6.03;;;8.50;99.90;;;;;;494033;239;27880;-74
2021/05/28 02:56:49;;;;;;;6.50;4.80;;;8.60;99.90;;;;;;494081;241;28175;-74
2021/05/28 02:58:50;;;;;;;4.80;4.30;;;8.50;99.90;;;;;;494089;237;27638;-74
2021/05/28 03:00:52;;;;;;;4.80;4.37;;;8.50;99.90;;;;;;494106;241;28450;-74
2021/05/28 03:02:53;;;;;;;5.20;4.70;;;8.50;99.90;;;;;;494164;241;27840;-74
2021/05/28 03:04:54;;;;;;;7.47;4.97;;;8.50;99.90;;;;;;494133;241;27709;-74
2021/05/28 03:06:55;;;;;;;4.60;4.20;;;8.50;99.90;;;;;;494075;241;27622;-74
2021/05/28 03:08:56;;;;;;;5.77;5.27;;;8.50;99.90;;;;;;494088;241;28465;-74
2021/05/28 03:10:58;;;;;;;4.53;4.20;;;8.40;99.90;;;;;;494054;241;28659;-74
2021/05/28 03:12:59;;;;;;;4.80;4.40;;;8.40;99.90;;;;;;494086;241;28570;-74
2021/05/28 03:15:00;;;;;;;7.03;6.33;;;8.40;99.90;;;;;;494068;241;28560;-74
2021/05/28 03:17:01;;;;;;;7.80;6.43;;;8.40;99.90;;;;;;494087;237;28049;-74
2021/05/28 03:19:06;;;;;;;7.40;6.70;;;8.40;99.90;;;;;;494039;241;27751;-73
2021/05/28 03:21:19;;;;;;;6.60;5.60;;;8.40;99.90;;;;;;493807;241;27731;-75
2021/05/28 03:23:08;;;;;;;6.00;5.10;;;8.50;99.90;;;;;;493028;241;27988;-74
2021/05/28 03:25:09;;;;;;;6.13;5.53;;;8.50;99.90;;;;;;494062;241;27946;-74
2021/05/28 03:27:11;;;;;;;5.50;5.07;;;8.60;99.90;;;;;;494066;241;27747;-74
2021/05/28 03:29:12;;;;;;;5.63;5.13;;;8.60;99.90;;;;;;494038;241;28006;-74
2021/05/28 03:31:13;;;;;;;7.20;5.70;;;8.60;99.90;;;;;;494075;241;27963;-74
2021/05/28 03:33:14;;;;;;;5.50;5.00;;;8.50;99.90;;;;;;494073;241;27974;-73
2021/05/28 03:35:16;;;;;;;4.83;4.43;;;8.40;99.90;;;;;;494086;241;28008;-74
2021/05/28 03:37:17;;;;;;;5.50;4.90;;;8.30;99.90;;;;;;494065;241;27861;-74
2021/05/28 03:39:18;;;;;;;5.27;4.87;;;8.30;99.90;;;;;;494102;241;27998;-74
2021/05/28 03:41:19;;;;;;;5.77;4.80;;;8.30;99.90;;;;;;494041;241;28316;-73
2021/05/28 03:43:21;;;;;;;5.53;5.03;;;8.30;99.90;;;;;;494063;241;28900;-74
2021/05/28 03:45:22;;;;;;;9.50;5.00;;;8.20;99.90;;;;;;493947;241;28034;-74
2021/05/28 03:47:23;;;;;;;6.17;5.57;;;8.20;99.90;;;;;;494182;241;28451;-74
2021/05/28 03:49:24;;;;;;;8.13;5.20;;;8.30;99.90;;;;;;494197;241;28457;-74
2021/05/28 03:51:26;;;;;;;5.33;4.83;;;8.20;99.90;;;;;;494143;241;28072;-73
2021/05/28 03:53:27;;;;;;;7.30;6.60;;;8.20;99.90;;;;;;494065;237;27596;-73
2021/05/28 03:55:28;;;;;;;6.23;5.50;;;8.10;99.90;;;;;;494107;241;27943;-74
2021/05/28 03:57:29;;;;;;;5.70;5.10;;;8.10;99.90;;;;;;494195;241;27736;-74
2021/05/28 03:59:31;;;;;;;6.80;5.20;;;8.10;99.90;;;;;;494056;241;27698;-74
2021/05/28 04:01:32;;;;;;;6.80;5.30;;;8.10;99.90;;;;;;494111;241;27864;-74
2021/05/28 04:03:33;;;;;;;8.73;5.27;;;8.20;99.90;;;;;;494073;241;27806;-74
2021/05/28 04:05:34;;;;;;;6.90;5.20;;;8.20;99.90;;;;;;494062;241;27994;-74
2021/05/28 04:07:36;;;;;;;6.10;4.73;;;8.20;99.90;;;;;;494078;241;27998;-74
2021/05/28 04:09:37;;;;;;;7.70;6.67;;;8.20;99.90;;;;;;494077;241;28046;-73
2021/05/28 04:11:38;;;;;;;7.83;7.03;;;8.10;99.90;;;;;;494071;241;28044;-73
2021/05/28 04:13:39;;;;;;;9.97;7.83;;;8.10;99.90;;;;;;494119;240;27840;-74
2021/05/28 04:15:41;;;;;;;12.97;7.47;;;8.00;99.90;;;;;;494135;241;27748;-75
2021/05/28 04:17:42;;;;;;;10.70;8.13;;;8.00;99.90;;;;;;494156;241;28354;-74
2021/05/28 04:19:43;;;;;;;10.63;8.83;;;8.00;99.90;;;;;;494156;241;28479;-74
2021/05/28 04:21:44;;;;;;;14.37;8.60;;;8.00;99.90;;;;;;494178;241;28420;-73
2021/05/28 04:23:46;;;;;;;11.30;8.30;;;8.10;99.90;;;;;;494186;241;27747;-74
2021/05/28 04:25:47;;;;;;;9.83;6.73;;;8.10;99.90;;;;;;494057;241;27747;-73
2021/05/28 04:27:48;;;;;;;12.57;8.87;;;8.10;99.90;;;;;;494056;241;28007;-74
2021/05/28 04:29:49;;;;;;;10.63;7.17;;;8.10;99.90;;;;;;494133;241;27606;-74
2021/05/28 04:31:51;;;;;;;12.93;8.20;;;8.20;99.90;;;;;;494170;241;27618;-73
2021/05/28 04:33:52;;;;;;;11.37;7.50;;;8.20;99.90;;;;;;494075;241;28083;-74
2021/05/28 04:35:53;;;;;;;9.70;7.10;;;8.30;99.90;;;;;;494147;241;28073;-76
2021/05/28 04:37:54;;;;;;;9.77;6.87;;;8.30;99.90;;;;;;494127;239;28299;-74
2021/05/28 04:39:56;;;;;;;8.40;6.00;;;8.30;99.90;;;;;;494143;237;28119;-73
2021/05/28 04:41:57;;;;;;;8.30;7.20;;;8.30;99.90;;;;;;494144;241;27845;-74
2021/05/28 04:43:58;;;;;;;6.67;6.03;;;8.30;99.90;;;;;;494053;241;27937;-74
2021/05/28 04:45:59;;;;;;;7.13;6.40;;;8.20;99.90;;;;;;494064;241;28241;-74
2021/05/28 04:48:01;;;;;;;9.10;7.47;;;8.30;99.90;;;;;;494036;241;28646;-73
2021/05/28 04:50:02;;;;;;;8.60;6.10;;;8.30;99.90;;;;;;494071;241;28494;-74
2021/05/28 04:52:03;;;;;;;8.77;6.37;;;8.40;99.90;;;;;;494071;241;28462;-74
2021/05/28 04:54:04;;;;;;;8.17;6.30;;;8.40;99.90;;;;;;494096;241;28282;-74
2021/05/28 04:56:06;;;;;;;7.07;6.37;;;8.40;99.90;;;;;;494065;241;28029;-75
2021/05/28 04:58:07;;;;;;;9.27;6.47;;;8.50;99.90;;;;;;494053;241;27990;-74
2021/05/28 05:00:08;;;;;;;15.30;11.50;;;8.50;99.90;;;;;;494181;241;27703;-74
2021/05/28 05:02:09;;;;;;;8.80;7.43;;;8.50;99.90;;;;;;494123;241;27820;-74
2021/05/28 05:04:11;;;;;;;11.67;7.90;;;8.60;99.90;;;;;;494170;241;27940;-73
2021/05/28 05:06:12;;;;;;;16.50;9.50;;;8.70;99.90;;;;;;494161;241;27881;-74
2021/05/28 05:08:13;;;;;;;11.57;7.87;;;8.70;99.90;;;;;;494161;241;28156;-74
2021/05/28 05:10:15;;;;;;;8.33;6.90;;;8.70;99.90;;;;;;494164;241;28058;-74
2021/05/28 05:12:16;;;;;;;12.03;8.23;;;8.80;99.90;;;;;;494128;241;27766;-74
2021/05/28 05:14:17;;;;;;;16.63;8.53;;;8.70;99.90;;;;;;494165;240;27591;-75
2021/05/28 05:16:18;;;;;;;16.07;9.93;;;8.80;99.90;;;;;;494185;241;27941;-74
2021/05/28 05:18:19;;;;;;;17.33;10.10;;;8.70;99.90;;;;;;494223;241;29170;-75
2021/05/28 05:20:21;;;;;;;17.93;10.50;;;8.70;99.90;;;;;;494199;241;28514;-74
2021/05/28 05:22:22;;;;;;;10.90;8.90;;;8.80;99.90;;;;;;494211;241;27956;-73
2021/05/28 05:24:23;;;;;;;20.77;10.83;;;8.90;99.90;;;;;;494105;241;27923;-74
2021/05/28 05:26:24;;;;;;;17.23;10.40;;;8.90;99.90;;;;;;494135;241;28101;-73
2021/05/28 05:28:26;;;;;;;13.70;9.50;;;8.90;99.90;;;;;;494148;241;27866;-74
2021/05/28 05:30:27;;;;;;;20.83;11.33;;;8.90;99.90;;;;;;494150;241;27823;-74
2021/05/28 05:32:28;;;;;;;14.97;10.23;;;8.90;99.90;;;;;;494092;241;27968;-75
2021/05/28 05:34:31;;;;;;;12.60;9.97;;;9.00;99.90;;;;;;494100;241;27813;-74
2021/05/28 05:36:32;;;;;;;17.17;10.17;;;9.00;99.90;;;;;;494002;241;28153;-74
2021/05/28 05:38:32;;;;;;;14.80;9.50;;;9.10;99.90;;;;;;494072;241;28305;-73
2021/05/28 05:40:33;;;;;;;22.27;11.40;;;9.20;99.90;;;;;;494159;241;28295;-74
2021/05/28 05:42:34;;;;;;;15.10;11.63;;;9.10;99.90;;;;;;494168;241;28180;-74
2021/05/28 05:44:36;;;;;;;15.33;10.77;;;9.10;99.90;;;;;;494167;241;27951;-74
2021/05/28 05:46:39;;;;;;;15.80;11.40;;;9.10;99.90;;;;;;493980;241;28189;-74
2021/05/28 05:48:38;;;;;;;14.70;11.07;;;9.10;99.90;;;;;;494018;241;27953;-74
2021/05/28 05:50:40;;;;;;;20.57;12.97;;;9.20;99.90;;;;;;494043;241;27863;-74
2021/05/28 05:52:41;;;;;;;18.93;11.80;;;9.20;99.90;;;;;;494101;241;27707;-74
2021/05/28 05:54:42;;;;;;;16.77;11.40;;;9.20;99.90;;;;;;494071;241;28213;-74
2021/05/28 05:56:45;;;;;;;21.93;13.00;;;9.20;99.90;;;;;;494141;241;28420;-75
2021/05/28 05:58:45;;;;;;;18.27;11.40;;;9.30;99.90;;;;;;493971;241;28395;-74
2021/05/28 06:00:46;;;;;;;17.93;11.50;;;9.40;99.90;;;;;;494052;241;28049;-73
2021/05/28 06:02:47;;;;;;;20.70;12.30;;;9.40;99.90;;;;;;494075;241;28171;-74
2021/05/28 06:04:48;;;;;;;13.87;10.23;;;9.50;99.90;;;;;;494200;241;28042;-74
2021/05/28 06:06:50;;;;;;;16.60;11.00;;;9.50;99.90;;;;;;494129;241;28207;-75
2021/05/28 06:08:51;;;;;;;17.90;10.53;;;9.70;99.90;;;;;;494167;241;28081;-74
2021/05/28 06:10:52;;;;;;;16.40;10.70;;;9.80;99.90;;;;;;494162;241;28026;-75
2021/05/28 06:12:53;;;;;;;16.23;10.50;;;9.90;99.90;;;;;;494078;241;28503;-74
2021/05/28 06:14:55;;;;;;;14.60;10.10;;;10.00;99.90;;;;;;494066;241;28390;-74
2021/05/28 06:16:56;;;;;;;14.67;9.30;;;10.10;99.90;;;;;;494102;241;28168;-74
2021/05/28 06:18:57;;;;;;;12.00;9.80;;;10.40;99.90;;;;;;494098;241;27937;-74
2021/05/28 06:20:59;;;;;;;14.87;9.80;;;10.40;99.90;;;;;;494051;241;28086;-74
2021/05/28 06:23:00;;;;;;;10.23;8.47;;;10.20;99.90;;;;;;493588;241;27994;-75
2021/05/28 06:25:01;;;;;;;14.17;9.20;;;10.30;99.90;;;;;;494036;241;28055;-74
2021/05/28 06:27:03;;;;;;;17.53;8.80;;;10.30;99.90;;;;;;494192;241;28032;-75
2021/05/28 06:29:06;;;;;;;10.17;8.33;;;10.40;99.90;;;;;;494022;241;28154;-74
2021/05/28 06:31:05;;;;;;;13.90;8.80;;;10.40;99.90;;;;;;493905;241;28714;-74
2021/05/28 06:33:06;;;;;;;13.53;9.20;;;10.70;99.90;;;;;;494071;241;28733;-74
2021/05/28 06:35:07;;;;;;;10.50;7.97;;;10.80;99.90;;;;;;494069;241;28512;-74
2021/05/28 06:37:08;;;;;;;10.40;7.40;;;10.60;99.90;;;;;;494142;241;28107;-75
2021/05/28 06:39:11;;;;;;;10.60;7.23;;;10.50;99.90;;;;;;494141;241;28227;-74
2021/05/28 06:41:11;;;;;;;11.53;8.10;;;10.60;99.90;;;;;;494079;241;28240;-74
2021/05/28 06:43:12;;;;;;;10.93;8.23;;;10.80;99.90;;;;;;494182;241;28903;-74
2021/05/28 06:45:16;;;;;;;13.57;8.30;;;10.80;99.90;;;;;;494148;241;28095;-74
2021/05/28 06:47:16;;;;;;;13.07;8.20;;;10.90;99.90;;;;;;493917;237;28075;-74
2021/05/28 06:49:16;;;;;;;14.47;8.00;;;10.90;99.90;;;;;;494001;241;28801;-74
2021/05/28 06:51:17;;;;;;;13.10;7.57;;;10.90;99.90;;;;;;494085;241;29026;-74
2021/05/28 06:53:18;;;;;;;10.07;7.50;;;10.80;99.90;;;;;;494158;241;28303;-74
2021/05/28 06:55:20;;;;;;;10.20;7.37;;;10.70;99.90;;;;;;494194;241;28176;-74
2021/05/28 06:57:22;;;;;;;11.90;7.63;;;10.70;99.90;;;;;;494144;241;28289;-74
2021/05/28 06:59:22;;;;;;;9.50;7.70;;;10.70;99.90;;;;;;494052;240;28190;-74
2021/05/28 07:01:23;;;;;;;8.93;7.00;;;10.60;99.90;;;;;;493919;241;28235;-74
2021/05/28 07:03:25;;;;;;;16.60;8.17;;;10.50;99.90;;;;;;494073;241;28769;-74
2021/05/28 07:05:28;;;;;;;14.53;7.40;;;10.50;99.90;;;;;;494057;241;28342;-74
2021/05/28 07:07:27;;;;;;;8.10;6.80;;;10.60;99.90;;;;;;493934;241;29128;-74
2021/05/28 07:09:28;;;;;;;12.50;8.13;;;10.60;99.90;;;;;;494020;241;28772;-74
2021/05/28 07:11:30;;;;;;;12.93;7.73;;;10.60;99.90;;;;;;494078;241;28574;-74
2021/05/28 07:13:31;;;;;;;10.37;7.67;;;10.50;99.90;;;;;;494064;241;28073;-74
2021/05/28 07:15:32;;;;;;;10.40;7.83;;;10.40;99.90;;;;;;494186;241;28227;-74
2021/05/28 07:17:34;;;;;;;13.57;8.00;;;10.60;99.90;;;;;;494173;241;28160;-75
2021/05/28 07:19:35;;;;;;;8.90;7.07;;;10.60;99.90;;;;;;494144;241;28031;-73
2021/05/28 07:21:36;;;;;;;9.10;7.40;;;10.50;99.90;;;;;;494056;241;28265;-74
2021/05/28 07:23:37;;;;;;;8.37;7.47;;;10.50;99.90;;;;;;494162;241;28098;-74
2021/05/28 07:25:38;;;;;;;9.27;7.80;;;10.70;99.90;;;;;;494170;241;28154;-74
2021/05/28 07:27:40;;;;;;;12.63;7.60;;;10.70;99.90;;;;;;494154;241;28803;-74
2021/05/28 07:29:41;;;;;;;10.73;7.70;;;10.80;99.90;;;;;;494078;241;28605;-74
2021/05/28 07:31:42;;;;;;;9.80;6.73;;;10.70;99.90;;;;;;494049;239;28675;-74
2021/05/28 07:33:43;;;;;;;9.43;8.13;;;10.80;99.90;;;;;;494070;241;28343;-74
2021/05/28 07:35:45;;;;;;;10.80;7.07;;;11.00;99.90;;;;;;494121;237;28229;-74
2021/05/28 07:37:46;;;;;;;12.27;8.00;;;11.00;99.90;;;;;;494046;241;28231;-74
2021/05/28 07:39:47;;;;;;;9.90;7.57;;;11.00;99.90;;;;;;494061;241;28173;-74
2021/05/28 07:41:49;;;;;;;10.30;7.70;;;11.10;99.90;;;;;;494093;241;28305;-74
2021/05/28 07:43:50;;;;;;;12.07;7.20;;;11.30;99.90;;;;;;494130;241;28188;-74
2021/05/28 07:45:51;;;;;;;10.40;6.80;;;11.40;99.90;;;;;;494061;241;28507;-73
2021/05/28 07:47:52;;;;;;;10.73;6.20;;;11.40;99.90;;;;;;494101;241;29008;-74
2021/05/28 07:49:54;;;;;;;9.80;6.37;;;11.60;99.90;;;;;;494091;239;28736;-74
2021/05/28 07:51:56;;;;;;;6.30;5.70;;;;;;;;;;494066;241;28913;-74
2021/05/28 07:53:57;;;;;;;7.37;5.67;;;11.80;99.90;;;;;;494051;241;26953;-74
2021/05/28 07:56:05;;;;;;;6.37;5.77;;;12.00;99.90;;;;;;494168;241;28217;-74
2021/05/28 07:58:06;;;;;;;9.33;6.40;;;11.90;99.90;;;;;;494158;241;28197;-73
2021/05/28 08:00:07;;;;;;;7.53;6.00;;;11.80;99.90;;;;;;494093;241;28346;-74
2021/05/28 08:02:08;;;;;;;8.23;5.60;;;11.80;99.90;;;;;;494164;241;28803;-74
2021/05/28 08:04:09;;;;;;;6.63;5.23;;;11.80;99.90;;;;;;494137;241;28327;-74
2021/05/28 08:06:11;;;;;;;7.90;5.70;;;11.70;99.90;;;;;;494158;241;28315;-74
2021/05/28 08:08:12;;;;;;;5.30;4.73;;;11.60;99.90;;;;;;494141;241;28857;-74
2021/05/28 08:10:13;;;;;;;7.70;5.40;;;11.60;99.90;;;;;;494079;241;28684;-74
2021/05/28 08:12:14;;;;;;;6.77;5.07;;;11.80;99.90;;;;;;494059;237;29041;-74
2021/05/28 08:14:16;;;;;;;5.57;4.87;;;11.90;99.90;;;;;;494017;241;28508;-74
2021/05/28 08:16:17;;;;;;;5.47;4.93;;;11.90;99.90;;;;;;494107;241;28349;-73
2021/05/28 08:18:19;;;;;;;6.07;5.10;;;;;;;;;;494095;241;28315;-74
2021/05/28 08:20:21;;;;;;;5.47;4.50;;;11.90;99.90;;;;;;494126;241;26472;-74
2021/05/28 08:22:22;;;;;;;5.60;5.00;;;12.10;99.90;;;;;;494045;241;28706;-74
2021/05/28 08:24:24;;;;;;;5.63;4.00;;;12.20;99.90;;;;;;493997;241;29476;-74
2021/05/28 08:26:24;;;;;;;5.97;4.20;;;12.30;99.90;;;;;;494053;241;28768;-75
2021/05/28 08:28:26;;;;;;;7.57;4.20;;;12.60;99.90;;;;;;493952;241;28442;-74
2021/05/28 08:30:27;;;;;;;5.50;4.20;;;12.60;99.90;;;;;;494039;241;28348;-74
2021/05/28 08:32:28;;;;;;;5.33;4.60;;;12.40;99.90;;;;;;494072;241;28308;-75
2021/05/28 08:34:29;;;;;;;8.67;5.07;;;12.30;99.90;;;;;;494064;241;28206;-74
2021/05/28 08:36:31;;;;;;;7.00;5.23;;;12.40;99.90;;;;;;494055;241;28191;-74
2021/05/28 08:38:32;;;;;;;8.27;5.40;;;12.40;99.90;;;;;;494090;241;28290;-75
2021/05/28 08:40:34;;;;;;;9.30;5.07;;;12.20;99.90;;;;;;494136;241;28322;-74
2021/05/28 08:42:34;;;;;;;10.63;5.30;;;12.20;99.90;;;;;;494131;241;28847;-74
2021/05/28 08:44:36;;;;;;;6.77;4.80;;;12.50;99.90;;;;;;493932;241;28850;-74
2021/05/28 08:46:37;;;;;;;5.20;3.80;;;12.70;99.90;;;;;;494141;241;28659;-74
2021/05/28 08:48:38;;;;;;;5.90;4.50;;;12.90;99.90;;;;;;494170;241;28862;-74
2021/05/28 08:50:39;;;;;;;5.07;4.00;;;12.50;99.90;;;;;;494147;241;29452;-74
2021/05/28 08:52:41;;;;;;;4.77;4.03;;;12.40;99.90;;;;;;494084;241;28207;-74
2021/05/28 08:54:42;;;;;;;4.20;3.63;;;12.50;99.90;;;;;;494093;241;28196;-74
2021/05/28 08:56:49;;;;;;;8.67;4.00;;;;;;;;;;494086;241;28262;-74
2021/05/28 08:58:46;;;;;;;6.47;3.37;;;13.00;99.90;;;;;;493682;241;26917;-74
2021/05/28 09:00:47;;;;;;;4.63;3.40;;;13.20;99.90;;;;;;494159;241;28827;-74
2021/05/28 09:02:48;;;;;;;6.67;3.63;;;12.90;99.90;;;;;;493863;239;28639;-74
2021/05/28 09:04:49;;;;;;;3.40;3.10;;;12.90;99.90;;;;;;494068;241;28285;-74
2021/05/28 09:06:51;;;;;;;5.83;3.70;;;12.90;99.90;;;;;;494071;241;28413;-74
2021/05/28 09:08:52;;;;;;;6.30;3.80;;;12.90;99.90;;;;;;494174;241;28160;-74
2021/05/28 09:10:56;;;;;;;6.27;4.13;;;12.90;99.90;;;;;;494156;241;28550;-74
2021/05/28 09:12:57;;;;;;;3.50;3.20;;;12.90;99.90;;;;;;494097;241;28244;-74
2021/05/28 09:14:58;;;;;;;4.10;3.60;;;13.10;99.90;;;;;;494097;241;28269;-74
2021/05/28 09:17:00;;;;;;;7.60;3.67;;;13.30;99.90;;;;;;494050;241;28844;-74
2021/05/28 09:19:01;;;;;;;4.80;3.90;;;13.10;99.90;;;;;;494079;241;29000;-74
2021/05/28 09:21:02;;;;;;;3.93;3.63;;;13.30;99.90;;;;;;494145;241;28785;-74
2021/05/28 09:23:03;;;;;;;4.47;3.33;;;13.40;99.90;;;;;;494170;241;28559;-74
2021/05/28 09:25:05;;;;;;;6.13;3.40;;;13.90;99.90;;;;;;494120;241;28467;-73
2021/05/28 09:27:06;;;;;;;5.03;3.20;;;14.10;99.90;;;;;;494085;241;28524;-74
2021/05/28 09:29:07;;;;;;;4.30;3.90;;;14.20;99.90;;;;;;494181;241;28556;-74
2021/05/28 09:31:09;;;;;;;3.37;3.07;;;14.00;99.90;;;;;;494096;241;28409;-75
2021/05/28 09:33:10;;;;;;;4.93;3.50;;;14.10;99.90;;;;;;494096;241;28837;-76
2021/05/28 09:35:11;;;;;;;3.77;2.80;;;14.20;99.90;;;;;;494094;241;28794;-76
2021/05/28 09:37:12;;;;;;;3.40;3.10;;;14.20;99.90;;;;;;494065;241;28840;-74
2021/05/28 09:39:13;;;;;;;3.43;3.13;;;14.00;99.90;;;;;;494154;241;28856;-74
2021/05/28 09:41:15;;;;;;;4.60;3.53;;;14.00;99.90;;;;;;494146;241;29382;-74
2021/05/28 09:43:16;;;;;;;3.77;3.43;;;14.10;99.90;;;;;;494124;241;28872;-73
2021/05/28 09:45:17;;;;;;;4.33;3.10;;;14.10;99.90;;;;;;494064;237;28857;-76
2021/05/28 09:47:19;;;;;;;3.80;3.03;;;14.20;99.90;;;;;;494051;241;28809;-76
2021/05/28 09:49:20;;;;;;;3.37;3.00;;;14.40;99.90;;;;;;494159;241;28900;-74
2021/05/28 09:51:21;;;;;;;4.43;2.73;;;14.60;99.90;;;;;;494083;241;29309;-75
2021/05/28 09:53:22;;;;;;;3.90;3.03;;;14.70;99.90;;;;;;494166;241;29291;-74
2021/05/28 09:55:27;;;;;;;4.93;3.30;;;14.50;99.90;;;;;;494077;241;30332;-74
2021/05/28 09:57:25;;;;;;;5.00;3.37;;;14.30;99.90;;;;;;493868;241;29355;-73
2021/05/28 09:59:26;;;;;;;3.43;3.13;;;14.00;99.90;;;;;;494139;241;28918;-74
2021/05/28 10:01:27;;;;;;;2.97;2.77;;;13.80;99.90;;;;;;494102;241;28848;-75
2021/05/28 10:03:30;;;;;;;4.33;3.00;;;14.00;99.90;;;;;;494084;241;28918;-74
2021/05/28 10:05:30;;;;;;;3.77;3.30;;;14.20;99.90;;;;;;494030;241;28812;-75
2021/05/28 10:07:31;;;;;;;8.40;4.30;;;14.30;99.90;;;;;;494071;241;28851;-74
2021/05/28 10:09:32;;;;;;;4.27;3.70;;;14.00;99.90;;;;;;494113;241;28858;-74
2021/05/28 10:11:34;;;;;;;3.77;3.30;;;14.20;99.90;;;;;;494122;241;28805;-74
2021/05/28 10:13:35;;;;;;;5.20;2.87;;;14.60;99.90;;;;;;494097;241;28836;-74
2021/05/28 10:15:36;;;;;;;3.77;3.20;;;14.80;99.90;;;;;;494104;241;30268;-74
2021/05/28 10:17:37;;;;;;;3.67;3.00;;;15.00;99.90;;;;;;494099;241;29595;-75
2021/05/28 10:19:39;;;;;;;2.87;2.50;;;15.20;99.90;;;;;;494117;241;29290;-74
2021/05/28 10:21:41;;;;;;;5.93;3.13;;;15.30;99.90;;;;;;494066;241;29273;-76
2021/05/28 10:23:41;;;;;;;4.23;3.10;;;15.20;99.90;;;;;;494030;241;28865;-76
2021/05/28 10:25:42;;;;;;;5.53;3.60;;;15.00;99.90;;;;;;494026;241;28929;-76
2021/05/28 10:27:44;;;;;;;4.47;3.30;;;14.50;99.90;;;;;;494111;241;28841;-74
2021/05/28 10:29:45;;;;;;;6.07;3.00;;;14.20;99.90;;;;;;494135;241;28870;-74
2021/05/28 10:31:46;;;;;;;3.30;3.00;;;14.20;99.90;;;;;;494090;241;28868;-73
2021/05/28 10:33:48;;;;;;;3.30;3.00;;;14.30;99.90;;;;;;494131;241;28887;-73